sensor_id;sensor_type;location;lat;lon;timestamp;P1;durP1;ratioP1;P2;durP2;ratioP2
56523;SDS011;42422;47.540;18.712;2023-12-29T00:01:12;27.00;;;11.90;;
56523;SDS011;42422;47.540;18.712;2023-12-29T00:06:02;46.00;;;17.93;;
56523;SDS011;42422;47.540;18.712;2023-12-29T00:10:53;46.44;;;22.60;;
56523;SDS011;42422;47.540;18.712;2023-12-29T00:15:47;43.50;;;23.03;;
56523;SDS011;42422;47.540;18.712;2023-12-29T00:18:15;36.17;;;18.00;;
56523;SDS011;42422;47.540;18.712;2023-12-29T00:23:05;36.50;;;17.13;;
56523;SDS011;42422;47.540;18.712;2023-12-29T00:27:55;34.77;;;16.73;;
56523;SDS011;42422;47.540;18.712;2023-12-29T00:32:46;24.40;;;13.50;;
56523;SDS011;42422;47.540;18.712;2023-12-29T00:37:37;36.27;;;13.20;;
56523;SDS011;42422;47.540;18.712;2023-12-29T00:42:27;21.40;;;12.93;;
56523;SDS011;42422;47.540;18.712;2023-12-29T00:47:18;26.50;;;11.90;;
56523;SDS011;42422;47.540;18.712;2023-12-29T00:49:44;28.97;;;14.53;;
56523;SDS011;42422;47.540;18.712;2023-12-29T00:54:34;27.27;;;13.43;;
56523;SDS011;42422;47.540;18.712;2023-12-29T00:59:25;26.38;;;13.18;;
56523;SDS011;42422;47.540;18.712;2023-12-29T01:04:15;27.17;;;13.33;;
56523;SDS011;42422;47.540;18.712;2023-12-29T01:09:06;31.47;;;14.67;;
56523;SDS011;42422;47.540;18.712;2023-12-29T01:13:56;24.73;;;12.90;;
56523;SDS011;42422;47.540;18.712;2023-12-29T01:18:46;29.70;;;13.87;;
56523;SDS011;42422;47.540;18.712;2023-12-29T01:23:36;27.40;;;14.60;;
56523;SDS011;42422;47.540;18.712;2023-12-29T01:28:27;30.90;;;12.77;;
56523;SDS011;42422;47.540;18.712;2023-12-29T01:33:17;23.55;;;13.85;;
56523;SDS011;42422;47.540;18.712;2023-12-29T01:35:44;26.60;;;13.13;;
56523;SDS011;42422;47.540;18.712;2023-12-29T01:40:47;25.45;;;13.38;;
56523;SDS011;42422;47.540;18.712;2023-12-29T01:43:12;33.58;;;15.38;;
56523;SDS011;42422;47.540;18.712;2023-12-29T01:48:03;30.50;;;14.90;;
56523;SDS011;42422;47.540;18.712;2023-12-29T01:52:53;27.58;;;13.40;;
56523;SDS011;42422;47.540;18.712;2023-12-29T01:57:44;24.44;;;13.50;;
56523;SDS011;42422;47.540;18.712;2023-12-29T02:02:35;27.02;;;12.78;;
56523;SDS011;42422;47.540;18.712;2023-12-29T02:07:27;36.75;;;14.23;;
56523;SDS011;42422;47.540;18.712;2023-12-29T02:09:55;32.00;;;14.43;;
56523;SDS011;42422;47.540;18.712;2023-12-29T02:14:45;25.27;;;13.80;;
56523;SDS011;42422;47.540;18.712;2023-12-29T02:24:26;30.63;;;14.77;;
56523;SDS011;42422;47.540;18.712;2023-12-29T02:29:17;28.27;;;14.75;;
56523;SDS011;42422;47.540;18.712;2023-12-29T02:31:44;28.13;;;13.27;;
56523;SDS011;42422;47.540;18.712;2023-12-29T02:34:14;27.83;;;13.75;;
56523;SDS011;42422;47.540;18.712;2023-12-29T02:36:40;27.33;;;15.13;;
56523;SDS011;42422;47.540;18.712;2023-12-29T02:39:08;24.50;;;14.23;;
56523;SDS011;42422;47.540;18.712;2023-12-29T02:41:33;34.45;;;16.08;;
56523;SDS011;42422;47.540;18.712;2023-12-29T02:46:24;24.75;;;12.23;;
56523;SDS011;42422;47.540;18.712;2023-12-29T02:51:15;26.63;;;13.33;;
56523;SDS011;42422;47.540;18.712;2023-12-29T02:56:06;25.60;;;12.82;;
56523;SDS011;42422;47.540;18.712;2023-12-29T03:00:56;22.77;;;11.33;;
56523;SDS011;42422;47.540;18.712;2023-12-29T03:05:46;29.13;;;14.80;;
56523;SDS011;42422;47.540;18.712;2023-12-29T03:10:36;35.08;;;14.00;;
56523;SDS011;42422;47.540;18.712;2023-12-29T03:15:29;28.60;;;14.70;;
56523;SDS011;42422;47.540;18.712;2023-12-29T03:20:19;25.47;;;14.20;;
56523;SDS011;42422;47.540;18.712;2023-12-29T03:25:09;35.63;;;15.63;;
56523;SDS011;42422;47.540;18.712;2023-12-29T03:30:00;30.70;;;15.60;;
56523;SDS011;42422;47.540;18.712;2023-12-29T03:34:50;30.62;;;15.62;;
56523;SDS011;42422;47.540;18.712;2023-12-29T03:39:41;36.38;;;16.05;;
56523;SDS011;42422;47.540;18.712;2023-12-29T03:44:31;34.63;;;14.82;;
56523;SDS011;42422;47.540;18.712;2023-12-29T03:49:21;32.70;;;16.27;;
56523;SDS011;42422;47.540;18.712;2023-12-29T03:51:46;32.95;;;16.65;;
56523;SDS011;42422;47.540;18.712;2023-12-29T03:56:37;27.03;;;14.53;;
56523;SDS011;42422;47.540;18.712;2023-12-29T03:59:02;36.65;;;19.23;;
56523;SDS011;42422;47.540;18.712;2023-12-29T04:03:53;43.72;;;18.42;;
56523;SDS011;42422;47.540;18.712;2023-12-29T04:06:18;38.20;;;19.38;;
56523;SDS011;42422;47.540;18.712;2023-12-29T04:11:08;35.77;;;17.77;;
56523;SDS011;42422;47.540;18.712;2023-12-29T04:15:59;30.90;;;15.50;;
56523;SDS011;42422;47.540;18.712;2023-12-29T04:20:49;30.73;;;16.33;;
56523;SDS011;42422;47.540;18.712;2023-12-29T04:25:40;29.73;;;16.87;;
56523;SDS011;42422;47.540;18.712;2023-12-29T04:28:06;36.13;;;16.02;;
56523;SDS011;42422;47.540;18.712;2023-12-29T04:30:31;38.60;;;17.30;;
56523;SDS011;42422;47.540;18.712;2023-12-29T04:35:21;41.17;;;16.85;;
56523;SDS011;42422;47.540;18.712;2023-12-29T04:40:12;34.27;;;16.13;;
56523;SDS011;42422;47.540;18.712;2023-12-29T04:45:03;39.17;;;17.50;;
56523;SDS011;42422;47.540;18.712;2023-12-29T04:49:53;40.13;;;17.53;;
56523;SDS011;42422;47.540;18.712;2023-12-29T04:54:43;33.47;;;16.07;;
56523;SDS011;42422;47.540;18.712;2023-12-29T04:59:34;38.53;;;17.27;;
56523;SDS011;42422;47.540;18.712;2023-12-29T05:04:24;41.90;;;19.03;;
56523;SDS011;42422;47.540;18.712;2023-12-29T05:09:14;48.40;;;21.23;;
56523;SDS011;42422;47.540;18.712;2023-12-29T05:14:05;36.83;;;20.00;;
56523;SDS011;42422;47.540;18.712;2023-12-29T05:18:55;46.70;;;20.67;;
56523;SDS011;42422;47.540;18.712;2023-12-29T05:23:46;36.17;;;17.87;;
56523;SDS011;42422;47.540;18.712;2023-12-29T05:26:12;44.10;;;19.50;;
56523;SDS011;42422;47.540;18.712;2023-12-29T05:31:03;38.93;;;19.00;;
56523;SDS011;42422;47.540;18.712;2023-12-29T05:35:54;44.80;;;19.73;;
56523;SDS011;42422;47.540;18.712;2023-12-29T05:40:44;33.03;;;16.75;;
56523;SDS011;42422;47.540;18.712;2023-12-29T05:45:34;24.45;;;14.23;;
56523;SDS011;42422;47.540;18.712;2023-12-29T05:50:25;30.57;;;15.33;;
56523;SDS011;42422;47.540;18.712;2023-12-29T05:55:17;28.27;;;14.93;;
56523;SDS011;42422;47.540;18.712;2023-12-29T06:00:07;26.00;;;14.00;;
56523;SDS011;42422;47.540;18.712;2023-12-29T06:02:39;36.17;;;16.83;;
56523;SDS011;42422;47.540;18.712;2023-12-29T06:07:29;49.50;;;22.02;;
56523;SDS011;42422;47.540;18.712;2023-12-29T06:12:19;38.72;;;18.80;;
56523;SDS011;42422;47.540;18.712;2023-12-29T06:17:09;49.38;;;20.50;;
56523;SDS011;42422;47.540;18.712;2023-12-29T06:22:00;49.93;;;22.70;;
56523;SDS011;42422;47.540;18.712;2023-12-29T06:26:50;39.80;;;17.88;;
56523;SDS011;42422;47.540;18.712;2023-12-29T06:31:42;42.60;;;18.67;;
56523;SDS011;42422;47.540;18.712;2023-12-29T06:34:07;26.30;;;14.87;;
56523;SDS011;42422;47.540;18.712;2023-12-29T06:38:57;26.97;;;14.03;;
56523;SDS011;42422;47.540;18.712;2023-12-29T06:43:48;38.63;;;17.70;;
56523;SDS011;42422;47.540;18.712;2023-12-29T06:48:39;31.90;;;14.97;;
56523;SDS011;42422;47.540;18.712;2023-12-29T06:53:29;28.70;;;16.52;;
56523;SDS011;42422;47.540;18.712;2023-12-29T06:58:19;31.42;;;15.30;;
56523;SDS011;42422;47.540;18.712;2023-12-29T07:03:12;30.48;;;15.32;;
56523;SDS011;42422;47.540;18.712;2023-12-29T07:05:37;52.20;;;25.93;;
56523;SDS011;42422;47.540;18.712;2023-12-29T07:10:27;169.63;;;50.15;;
56523;SDS011;42422;47.540;18.712;2023-12-29T07:15:18;82.23;;;31.00;;
56523;SDS011;42422;47.540;18.712;2023-12-29T07:20:09;42.00;;;21.47;;
56523;SDS011;42422;47.540;18.712;2023-12-29T07:24:59;36.67;;;18.73;;
56523;SDS011;42422;47.540;18.712;2023-12-29T07:29:50;34.90;;;15.87;;
56523;SDS011;42422;47.540;18.712;2023-12-29T07:32:17;42.80;;;19.57;;
56523;SDS011;42422;47.540;18.712;2023-12-29T07:37:09;39.33;;;18.40;;
56523;SDS011;42422;47.540;18.712;2023-12-29T07:41:59;45.70;;;20.37;;
56523;SDS011;42422;47.540;18.712;2023-12-29T07:46:50;63.03;;;26.90;;
56523;SDS011;42422;47.540;18.712;2023-12-29T07:51:41;123.00;;;47.77;;
56523;SDS011;42422;47.540;18.712;2023-12-29T07:56:31;28.08;;;17.02;;
56523;SDS011;42422;47.540;18.712;2023-12-29T08:01:22;49.60;;;22.97;;
56523;SDS011;42422;47.540;18.712;2023-12-29T08:06:12;39.77;;;16.90;;
56523;SDS011;42422;47.540;18.712;2023-12-29T08:11:02;38.93;;;18.13;;
56523;SDS011;42422;47.540;18.712;2023-12-29T08:15:53;60.20;;;28.67;;
56523;SDS011;42422;47.540;18.712;2023-12-29T08:20:43;59.27;;;27.23;;
56523;SDS011;42422;47.540;18.712;2023-12-29T08:25:34;54.83;;;29.13;;
56523;SDS011;42422;47.540;18.712;2023-12-29T08:28:01;65.53;;;28.57;;
56523;SDS011;42422;47.540;18.712;2023-12-29T08:32:52;56.35;;;24.75;;
56523;SDS011;42422;47.540;18.712;2023-12-29T08:37:42;46.92;;;23.20;;
56523;SDS011;42422;47.540;18.712;2023-12-29T08:42:33;56.97;;;26.33;;
56523;SDS011;42422;47.540;18.712;2023-12-29T08:47:23;48.40;;;25.30;;
56523;SDS011;42422;47.540;18.712;2023-12-29T08:52:14;46.23;;;22.03;;
56523;SDS011;42422;47.540;18.712;2023-12-29T08:57:05;42.97;;;20.40;;
56523;SDS011;42422;47.540;18.712;2023-12-29T08:59:31;35.17;;;18.07;;
56523;SDS011;42422;47.540;18.712;2023-12-29T09:04:22;32.93;;;15.63;;
56523;SDS011;42422;47.540;18.712;2023-12-29T09:09:12;33.37;;;17.37;;
56523;SDS011;42422;47.540;18.712;2023-12-29T09:14:03;28.00;;;16.73;;
56523;SDS011;42422;47.540;18.712;2023-12-29T09:18:53;41.60;;;20.47;;
56523;SDS011;42422;47.540;18.712;2023-12-29T09:23:43;39.67;;;19.10;;
56523;SDS011;42422;47.540;18.712;2023-12-29T09:28:34;36.67;;;18.73;;
56523;SDS011;42422;47.540;18.712;2023-12-29T09:33:25;45.60;;;21.67;;
56523;SDS011;42422;47.540;18.712;2023-12-29T09:38:16;36.63;;;18.97;;
56523;SDS011;42422;47.540;18.712;2023-12-29T09:40:41;34.53;;;17.10;;
56523;SDS011;42422;47.540;18.712;2023-12-29T09:45:31;52.90;;;27.63;;
56523;SDS011;42422;47.540;18.712;2023-12-29T09:47:58;57.13;;;27.67;;
56523;SDS011;42422;47.540;18.712;2023-12-29T09:50:25;44.03;;;22.40;;
56523;SDS011;42422;47.540;18.712;2023-12-29T09:55:16;57.43;;;25.37;;
56523;SDS011;42422;47.540;18.712;2023-12-29T10:00:09;67.78;;;33.85;;
56523;SDS011;42422;47.540;18.712;2023-12-29T10:02:35;68.38;;;33.53;;
56523;SDS011;42422;47.540;18.712;2023-12-29T10:07:26;46.42;;;19.33;;
56523;SDS011;42422;47.540;18.712;2023-12-29T10:09:55;51.00;;;22.77;;
56523;SDS011;42422;47.540;18.712;2023-12-29T10:12:21;45.60;;;20.42;;
56523;SDS011;42422;47.540;18.712;2023-12-29T10:17:19;44.83;;;22.30;;
56523;SDS011;42422;47.540;18.712;2023-12-29T10:19:53;45.43;;;23.00;;
56523;SDS011;42422;47.540;18.712;2023-12-29T10:22:26;45.15;;;20.98;;
56523;SDS011;42422;47.540;18.712;2023-12-29T10:24:53;48.05;;;24.70;;
56523;SDS011;42422;47.540;18.712;2023-12-29T10:29:44;34.47;;;16.52;;
56523;SDS011;42422;47.540;18.712;2023-12-29T10:32:09;43.92;;;20.80;;
56523;SDS011;42422;47.540;18.712;2023-12-29T10:37:00;36.00;;;19.73;;
56523;SDS011;42422;47.540;18.712;2023-12-29T10:39:32;40.85;;;20.83;;
56523;SDS011;42422;47.540;18.712;2023-12-29T10:44:22;34.33;;;18.00;;
56523;SDS011;42422;47.540;18.712;2023-12-29T10:49:13;43.78;;;21.25;;
56523;SDS011;42422;47.540;18.712;2023-12-29T10:54:03;38.75;;;19.25;;
56523;SDS011;42422;47.540;18.712;2023-12-29T10:59:04;33.05;;;17.75;;
56523;SDS011;42422;47.540;18.712;2023-12-29T11:01:31;36.35;;;17.02;;
56523;SDS011;42422;47.540;18.712;2023-12-29T11:04:01;38.92;;;18.80;;
56523;SDS011;42422;47.540;18.712;2023-12-29T11:06:27;36.92;;;18.92;;
56523;SDS011;42422;47.540;18.712;2023-12-29T11:08:52;39.42;;;19.05;;
56523;SDS011;42422;47.540;18.712;2023-12-29T11:13:43;34.83;;;18.02;;
56523;SDS011;42422;47.540;18.712;2023-12-29T11:18:34;33.88;;;17.63;;
56523;SDS011;42422;47.540;18.712;2023-12-29T11:21:01;45.17;;;19.33;;
56523;SDS011;42422;47.540;18.712;2023-12-29T11:23:27;41.33;;;19.65;;
56523;SDS011;42422;47.540;18.712;2023-12-29T11:28:18;41.16;;;21.24;;
56523;SDS011;42422;47.540;18.712;2023-12-29T11:33:12;40.97;;;19.75;;
56523;SDS011;42422;47.540;18.712;2023-12-29T11:35:44;48.05;;;23.63;;
56523;SDS011;42422;47.540;18.712;2023-12-29T11:45:31;38.25;;;19.42;;
56523;SDS011;42422;47.540;18.712;2023-12-29T11:48:02;44.00;;;19.15;;
56523;SDS011;42422;47.540;18.712;2023-12-29T11:52:53;40.10;;;19.90;;
56523;SDS011;42422;47.540;18.712;2023-12-29T11:55:18;43.25;;;20.52;;
56523;SDS011;42422;47.540;18.712;2023-12-29T11:57:44;39.42;;;19.08;;
56523;SDS011;42422;47.540;18.712;2023-12-29T12:02:35;32.17;;;17.20;;
56523;SDS011;42422;47.540;18.712;2023-12-29T12:09:50;29.60;;;15.47;;
56523;SDS011;42422;47.540;18.712;2023-12-29T12:12:37;29.63;;;14.80;;
56523;SDS011;42422;47.540;18.712;2023-12-29T12:15:03;24.83;;;12.98;;
56523;SDS011;42422;47.540;18.712;2023-12-29T12:19:57;20.77;;;10.80;;
56523;SDS011;42422;47.540;18.712;2023-12-29T12:22:23;21.73;;;11.95;;
56523;SDS011;42422;47.540;18.712;2023-12-29T12:24:50;22.70;;;12.57;;
56523;SDS011;42422;47.540;18.712;2023-12-29T12:27:20;20.42;;;11.98;;
56523;SDS011;42422;47.540;18.712;2023-12-29T12:32:10;20.08;;;11.18;;
56523;SDS011;42422;47.540;18.712;2023-12-29T12:37:01;18.27;;;10.32;;
56523;SDS011;42422;47.540;18.712;2023-12-29T12:39:38;18.13;;;10.55;;
56523;SDS011;42422;47.540;18.712;2023-12-29T12:42:03;19.20;;;11.90;;
56523;SDS011;42422;47.540;18.712;2023-12-29T12:44:28;15.77;;;10.55;;
56523;SDS011;42422;47.540;18.712;2023-12-29T12:49:19;18.67;;;11.27;;
56523;SDS011;42422;47.540;18.712;2023-12-29T12:54:10;20.56;;;10.44;;
56523;SDS011;42422;47.540;18.712;2023-12-29T12:56:37;17.10;;;10.57;;
56523;SDS011;42422;47.540;18.712;2023-12-29T12:59:02;18.80;;;11.75;;
56523;SDS011;42422;47.540;18.712;2023-12-29T13:03:52;18.13;;;11.35;;
56523;SDS011;42422;47.540;18.712;2023-12-29T13:06:18;21.80;;;12.52;;
56523;SDS011;42422;47.540;18.712;2023-12-29T13:08:44;25.00;;;14.13;;
56523;SDS011;42422;47.540;18.712;2023-12-29T13:11:10;17.02;;;12.13;;
56523;SDS011;42422;47.540;18.712;2023-12-29T13:13:38;23.08;;;13.40;;
56523;SDS011;42422;47.540;18.712;2023-12-29T13:18:29;21.30;;;13.32;;
56523;SDS011;42422;47.540;18.712;2023-12-29T13:20:56;21.60;;;12.75;;
56523;SDS011;42422;47.540;18.712;2023-12-29T13:25:47;24.23;;;13.40;;
56523;SDS011;42422;47.540;18.712;2023-12-29T13:28:13;23.58;;;12.88;;
56523;SDS011;42422;47.540;18.712;2023-12-29T13:33:07;23.90;;;14.77;;
56523;SDS011;42422;47.540;18.712;2023-12-29T13:35:37;24.13;;;13.43;;
56523;SDS011;42422;47.540;18.712;2023-12-29T13:38:08;22.77;;;14.23;;
56523;SDS011;42422;47.540;18.712;2023-12-29T13:40:47;23.02;;;13.50;;
56523;SDS011;42422;47.540;18.712;2023-12-29T13:43:18;22.05;;;13.57;;
56523;SDS011;42422;47.540;18.712;2023-12-29T13:45:45;23.58;;;13.73;;
56523;SDS011;42422;47.540;18.712;2023-12-29T13:50:36;22.83;;;13.38;;
56523;SDS011;42422;47.540;18.712;2023-12-29T13:55:26;20.08;;;12.32;;
56523;SDS011;42422;47.540;18.712;2023-12-29T13:57:51;24.52;;;14.05;;
56523;SDS011;42422;47.540;18.712;2023-12-29T14:02:43;21.08;;;12.88;;
56523;SDS011;42422;47.540;18.712;2023-12-29T14:05:14;22.48;;;13.00;;
56523;SDS011;42422;47.540;18.712;2023-12-29T14:07:44;22.55;;;13.60;;
56523;SDS011;42422;47.540;18.712;2023-12-29T14:10:10;25.13;;;14.88;;
56523;SDS011;42422;47.540;18.712;2023-12-29T14:12:35;22.45;;;12.30;;
56523;SDS011;42422;47.540;18.712;2023-12-29T14:17:25;20.30;;;12.35;;
56523;SDS011;42422;47.540;18.712;2023-12-29T14:19:52;20.55;;;11.68;;
56523;SDS011;42422;47.540;18.712;2023-12-29T14:24:42;19.40;;;11.30;;
56523;SDS011;42422;47.540;18.712;2023-12-29T14:27:07;19.73;;;10.97;;
56523;SDS011;42422;47.540;18.712;2023-12-29T14:31:58;19.73;;;11.55;;
56523;SDS011;42422;47.540;18.712;2023-12-29T14:34:25;22.70;;;12.02;;
56523;SDS011;42422;47.540;18.712;2023-12-29T14:39:15;21.73;;;12.02;;
56523;SDS011;42422;47.540;18.712;2023-12-29T14:44:05;22.42;;;13.48;;
56523;SDS011;42422;47.540;18.712;2023-12-29T14:46:31;19.85;;;13.25;;
56523;SDS011;42422;47.540;18.712;2023-12-29T14:48:58;26.60;;;14.32;;
56523;SDS011;42422;47.540;18.712;2023-12-29T14:53:49;26.80;;;14.00;;
56523;SDS011;42422;47.540;18.712;2023-12-29T14:58:39;26.40;;;13.75;;
56523;SDS011;42422;47.540;18.712;2023-12-29T15:03:30;26.40;;;16.25;;
56523;SDS011;42422;47.540;18.712;2023-12-29T15:08:21;30.67;;;19.35;;
56523;SDS011;42422;47.540;18.712;2023-12-29T15:13:11;28.15;;;16.90;;
56523;SDS011;42422;47.540;18.712;2023-12-29T15:15:37;27.70;;;17.08;;
56523;SDS011;42422;47.540;18.712;2023-12-29T15:20:27;24.63;;;15.85;;
56523;SDS011;42422;47.540;18.712;2023-12-29T15:25:20;30.10;;;16.27;;
56523;SDS011;42422;47.540;18.712;2023-12-29T15:27:47;32.22;;;16.58;;
56523;SDS011;42422;47.540;18.712;2023-12-29T15:30:13;37.03;;;16.45;;
56523;SDS011;42422;47.540;18.712;2023-12-29T15:35:03;41.63;;;21.08;;
56523;SDS011;42422;47.540;18.712;2023-12-29T15:37:28;42.58;;;22.15;;
56523;SDS011;42422;47.540;18.712;2023-12-29T15:42:19;36.35;;;20.83;;
56523;SDS011;42422;47.540;18.712;2023-12-29T15:44:44;38.88;;;20.70;;
56523;SDS011;42422;47.540;18.712;2023-12-29T15:49:38;40.35;;;18.88;;
56523;SDS011;42422;47.540;18.712;2023-12-29T15:52:03;34.38;;;18.60;;
56523;SDS011;42422;47.540;18.712;2023-12-29T15:54:28;32.88;;;18.60;;
56523;SDS011;42422;47.540;18.712;2023-12-29T15:59:19;30.38;;;17.88;;
56523;SDS011;42422;47.540;18.712;2023-12-29T16:01:44;36.60;;;20.90;;
56523;SDS011;42422;47.540;18.712;2023-12-29T16:04:10;42.08;;;23.13;;
56523;SDS011;42422;47.540;18.712;2023-12-29T16:09:02;29.85;;;17.20;;
56523;SDS011;42422;47.540;18.712;2023-12-29T16:11:29;31.10;;;16.23;;
56523;SDS011;42422;47.540;18.712;2023-12-29T16:13:55;33.28;;;17.52;;
56523;SDS011;42422;47.540;18.712;2023-12-29T16:16:21;28.55;;;16.02;;
56523;SDS011;42422;47.540;18.712;2023-12-29T16:18:52;33.03;;;17.15;;
56523;SDS011;42422;47.540;18.712;2023-12-29T16:21:17;30.02;;;17.58;;
56523;SDS011;42422;47.540;18.712;2023-12-29T16:26:08;33.25;;;19.05;;
56523;SDS011;42422;47.540;18.712;2023-12-29T16:28:34;33.95;;;20.60;;
56523;SDS011;42422;47.540;18.712;2023-12-29T16:33:24;36.80;;;20.58;;
56523;SDS011;42422;47.540;18.712;2023-12-29T16:38:15;38.85;;;21.70;;
56523;SDS011;42422;47.540;18.712;2023-12-29T16:43:05;34.47;;;18.38;;
56523;SDS011;42422;47.540;18.712;2023-12-29T16:47:56;35.17;;;17.77;;
56523;SDS011;42422;47.540;18.712;2023-12-29T16:50:23;30.02;;;16.60;;
56523;SDS011;42422;47.540;18.712;2023-12-29T16:55:13;31.38;;;16.23;;
56523;SDS011;42422;47.540;18.712;2023-12-29T16:57:41;27.63;;;15.95;;
56523;SDS011;42422;47.540;18.712;2023-12-29T17:02:31;31.10;;;15.10;;
56523;SDS011;42422;47.540;18.712;2023-12-29T17:04:57;33.67;;;18.33;;
56523;SDS011;42422;47.540;18.712;2023-12-29T17:09:47;32.35;;;16.33;;
56523;SDS011;42422;47.540;18.712;2023-12-29T17:14:38;74.40;;;33.74;;
56523;SDS011;42422;47.540;18.712;2023-12-29T17:17:06;55.63;;;25.67;;
56523;SDS011;42422;47.540;18.712;2023-12-29T17:19:32;56.33;;;25.00;;
56523;SDS011;42422;47.540;18.712;2023-12-29T17:24:23;31.00;;;17.75;;
56523;SDS011;42422;47.540;18.712;2023-12-29T17:29:13;33.88;;;17.77;;
56523;SDS011;42422;47.540;18.712;2023-12-29T17:31:41;33.20;;;15.63;;
56523;SDS011;42422;47.540;18.712;2023-12-29T17:34:07;30.63;;;16.75;;
56523;SDS011;42422;47.540;18.712;2023-12-29T17:38:58;34.58;;;17.17;;
56523;SDS011;42422;47.540;18.712;2023-12-29T17:43:50;38.97;;;21.40;;
56523;SDS011;42422;47.540;18.712;2023-12-29T17:48:40;41.90;;;22.12;;
56523;SDS011;42422;47.540;18.712;2023-12-29T17:53:32;26.75;;;14.85;;
56523;SDS011;42422;47.540;18.712;2023-12-29T17:58:22;22.13;;;13.23;;
56523;SDS011;42422;47.540;18.712;2023-12-29T18:00:48;23.63;;;11.77;;
56523;SDS011;42422;47.540;18.712;2023-12-29T18:03:13;26.02;;;13.95;;
56523;SDS011;42422;47.540;18.712;2023-12-29T18:05:38;21.98;;;12.23;;
56523;SDS011;42422;47.540;18.712;2023-12-29T18:08:05;24.75;;;14.07;;
56523;SDS011;42422;47.540;18.712;2023-12-29T18:12:55;22.65;;;11.90;;
56523;SDS011;42422;47.540;18.712;2023-12-29T18:15:23;25.80;;;12.75;;
56523;SDS011;42422;47.540;18.712;2023-12-29T18:20:14;24.27;;;12.18;;
56523;SDS011;42422;47.540;18.712;2023-12-29T18:22:41;22.17;;;12.55;;
56523;SDS011;42422;47.540;18.712;2023-12-29T18:27:32;24.23;;;12.52;;
56523;SDS011;42422;47.540;18.712;2023-12-29T18:29:58;26.00;;;13.40;;
56523;SDS011;42422;47.540;18.712;2023-12-29T18:34:49;24.75;;;13.95;;
56523;SDS011;42422;47.540;18.712;2023-12-29T18:37:14;25.15;;;14.27;;
56523;SDS011;42422;47.540;18.712;2023-12-29T18:42:06;24.35;;;12.23;;
56523;SDS011;42422;47.540;18.712;2023-12-29T18:46:56;24.38;;;12.30;;
56523;SDS011;42422;47.540;18.712;2023-12-29T18:51:47;32.66;;;17.06;;
56523;SDS011;42422;47.540;18.712;2023-12-29T18:54:15;34.47;;;17.55;;
56523;SDS011;42422;47.540;18.712;2023-12-29T18:59:06;33.65;;;16.80;;
56523;SDS011;42422;47.540;18.712;2023-12-29T19:01:43;34.13;;;16.67;;
56523;SDS011;42422;47.540;18.712;2023-12-29T19:04:08;31.73;;;16.55;;
56523;SDS011;42422;47.540;18.712;2023-12-29T19:08:58;27.63;;;15.23;;
56523;SDS011;42422;47.540;18.712;2023-12-29T19:11:24;27.23;;;14.93;;
56523;SDS011;42422;47.540;18.712;2023-12-29T19:16:20;24.73;;;13.80;;
56523;SDS011;42422;47.540;18.712;2023-12-29T19:18:46;24.27;;;14.07;;
56523;SDS011;42422;47.540;18.712;2023-12-29T19:23:36;30.46;;;14.70;;
56523;SDS011;42422;47.540;18.712;2023-12-29T19:28:27;22.58;;;13.32;;
56523;SDS011;42422;47.540;18.712;2023-12-29T19:33:18;27.33;;;14.65;;
56523;SDS011;42422;47.540;18.712;2023-12-29T19:38:08;32.70;;;15.02;;
56523;SDS011;42422;47.540;18.712;2023-12-29T19:42:58;30.15;;;14.73;;
56523;SDS011;42422;47.540;18.712;2023-12-29T19:47:49;29.20;;;16.10;;
56523;SDS011;42422;47.540;18.712;2023-12-29T19:50:14;28.70;;;15.25;;
56523;SDS011;42422;47.540;18.712;2023-12-29T19:52:42;31.52;;;15.18;;
56523;SDS011;42422;47.540;18.712;2023-12-29T19:55:07;29.55;;;16.55;;
56523;SDS011;42422;47.540;18.712;2023-12-29T19:59:57;26.10;;;12.05;;
56523;SDS011;42422;47.540;18.712;2023-12-29T20:04:49;21.95;;;11.85;;
56523;SDS011;42422;47.540;18.712;2023-12-29T20:07:16;25.30;;;13.45;;
56523;SDS011;42422;47.540;18.712;2023-12-29T20:12:07;28.45;;;13.52;;
56523;SDS011;42422;47.540;18.712;2023-12-29T20:14:33;33.83;;;14.93;;
56523;SDS011;42422;47.540;18.712;2023-12-29T20:19:24;25.76;;;12.26;;
56523;SDS011;42422;47.540;18.712;2023-12-29T20:24:14;21.02;;;10.68;;
56523;SDS011;42422;47.540;18.712;2023-12-29T20:29:05;28.33;;;14.68;;
56523;SDS011;42422;47.540;18.712;2023-12-29T20:33:56;34.40;;;17.65;;
56523;SDS011;42422;47.540;18.712;2023-12-29T20:36:22;35.92;;;18.45;;
56523;SDS011;42422;47.540;18.712;2023-12-29T20:41:19;43.17;;;22.33;;
56523;SDS011;42422;47.540;18.712;2023-12-29T20:43:45;49.95;;;24.67;;
56523;SDS011;42422;47.540;18.712;2023-12-29T20:46:13;50.42;;;24.38;;
56523;SDS011;42422;47.540;18.712;2023-12-29T20:51:04;42.10;;;22.83;;
56523;SDS011;42422;47.540;18.712;2023-12-29T20:53:29;43.63;;;22.42;;
56523;SDS011;42422;47.540;18.712;2023-12-29T20:58:19;40.65;;;18.00;;
56523;SDS011;42422;47.540;18.712;2023-12-29T21:03:10;43.47;;;20.65;;
56523;SDS011;42422;47.540;18.712;2023-12-29T21:08:00;52.52;;;26.26;;
56523;SDS011;42422;47.540;18.712;2023-12-29T21:12:50;35.05;;;17.60;;
56523;SDS011;42422;47.540;18.712;2023-12-29T21:15:17;33.03;;;16.20;;
56523;SDS011;42422;47.540;18.712;2023-12-29T21:20:08;30.73;;;15.95;;
56523;SDS011;42422;47.540;18.712;2023-12-29T21:22:36;28.05;;;16.38;;
56523;SDS011;42422;47.540;18.712;2023-12-29T21:27:27;31.27;;;17.10;;
56523;SDS011;42422;47.540;18.712;2023-12-29T21:29:53;28.73;;;15.38;;
56523;SDS011;42422;47.540;18.712;2023-12-29T21:34:45;30.50;;;15.77;;
56523;SDS011;42422;47.540;18.712;2023-12-29T21:39:35;28.95;;;14.57;;
56523;SDS011;42422;47.540;18.712;2023-12-29T21:42:00;30.55;;;14.82;;
56523;SDS011;42422;47.540;18.712;2023-12-29T21:46:51;33.75;;;15.90;;
56523;SDS011;42422;47.540;18.712;2023-12-29T21:49:16;34.45;;;18.23;;
56523;SDS011;42422;47.540;18.712;2023-12-29T21:51:42;39.90;;;18.88;;
56523;SDS011;42422;47.540;18.712;2023-12-29T21:56:32;32.83;;;16.77;;
56523;SDS011;42422;47.540;18.712;2023-12-29T21:58:57;35.47;;;15.95;;
56523;SDS011;42422;47.540;18.712;2023-12-29T22:03:48;34.80;;;16.67;;
56523;SDS011;42422;47.540;18.712;2023-12-29T22:06:13;40.80;;;17.27;;
56523;SDS011;42422;47.540;18.712;2023-12-29T22:11:03;32.38;;;16.52;;
56523;SDS011;42422;47.540;18.712;2023-12-29T22:15:54;27.63;;;15.80;;
56523;SDS011;42422;47.540;18.712;2023-12-29T22:20:44;28.10;;;14.27;;
56523;SDS011;42422;47.540;18.712;2023-12-29T22:23:10;26.45;;;14.95;;
56523;SDS011;42422;47.540;18.712;2023-12-29T22:28:02;32.22;;;15.50;;
56523;SDS011;42422;47.540;18.712;2023-12-29T22:32:53;32.97;;;15.45;;
56523;SDS011;42422;47.540;18.712;2023-12-29T22:37:43;33.00;;;15.57;;
56523;SDS011;42422;47.540;18.712;2023-12-29T22:42:33;30.40;;;14.80;;
56523;SDS011;42422;47.540;18.712;2023-12-29T22:47:25;30.33;;;14.02;;
56523;SDS011;42422;47.540;18.712;2023-12-29T22:52:15;29.90;;;15.70;;
56523;SDS011;42422;47.540;18.712;2023-12-29T22:57:06;28.35;;;15.13;;
56523;SDS011;42422;47.540;18.712;2023-12-29T23:01:57;24.83;;;12.52;;